Flight Track Log - Related Links

Times and Time Zones

All times are in EDT time to prevent confusion due to time zone crossing. See the UPS1214 flight status page for this flight to view local times or setup timezone preferences in your user account.

Time Position Orientation Groundspeed Altitude Reporting Facility
EDT Latitude Longitude Course Direction KTS MPH feet Rate Location/Type
Sat 05:26:33 AM 38.1780 -85.7280 142° Southeast 130 150  Level FlightAware ADS-B
Sat 05:26:55 AM 38.1600 -85.7220 165° South 166 191 1,500 3,529 Climbing FlightAware ADS-B
Sat 05:27:07 AM 38.1510 -85.7190 165° South 180 207 2,000 1,650 Climbing FlightAware ADS-B
Sat 05:27:35 AM 38.1250 -85.7090 163° South 224 258 2,600 1,714 Climbing FlightAware ADS-B
Sat 05:27:56 AM 38.1050 -85.6990 159° South 241 277 3,400 2,850 Climbing FlightAware ADS-B
Sat 05:28:15 AM 38.0840 -85.6890 159° South 247 284 4,500 2,813 Climbing FlightAware ADS-B
Sat 05:28:28 AM 38.0720 -85.6780 144° Southeast 267 307 4,900 2,333 Climbing FlightAware ADS-B
Sat 05:28:33 AM 38.0680 -85.6700 122° Southeast 276 318 5,200 3,000 Climbing FlightAware ADS-B
Sat 05:28:42 AM 38.0650 -85.6570 106° East 282 325 5,600 3,000 Climbing FlightAware ADS-B
Sat 05:28:49 AM 38.0630 -85.6440 101° East 286 329 6,000 3,360 Climbing FlightAware ADS-B
Sat 05:29:07 AM 38.0600 -85.6140 97° East 289 333 7,000 3,273 Climbing FlightAware ADS-B
Sat 05:29:33 AM 38.0570 -85.5680 95° East 297 342 8,400 3,130 Climbing FlightAware ADS-B
Sat 05:29:53 AM 38.0550 -85.5330 94° East 304 350 9,400 2,250 Climbing FlightAware ADS-B
Sat 05:30:13 AM 38.0520 -85.5010 97° East 308 354 9,900 1,333 Climbing FlightAware ADS-B
Sat 05:30:47 AM 38.0470 -85.4370 96° East 313 360 10,600 1,371 Climbing FlightAware ADS-B
Sat 05:31:23 AM 38.0410 -85.3650 96° East 364 419 11,500 2,282 Climbing FlightAware ADS-B
Sat 05:31:58 AM 38.0350 -85.2890 96° East 387 445 13,300 3,333 Climbing FlightAware ADS-B
Sat 05:32:35 AM 38.0280 -85.2030 96° East 403 464 15,500 3,478 Climbing FlightAware ADS-B
Sat 05:33:07 AM 38.0220 -85.1250 96° East 416 479 17,300 3,094 Climbing FlightAware ADS-B
Sat 05:33:39 AM 38.0270 -85.0470 85° East 430 495 18,800 2,829 Climbing FlightAware ADS-B
Sat 05:34:17 AM 38.0520 -84.9620 69° East 440 506 20,600 2,842 Climbing FlightAware ADS-B
Sat 05:34:55 AM 38.0810 -84.8730 67° East 451 519 22,400 3,086 Climbing FlightAware ADS-B
Sat 05:35:27 AM 38.1100 -84.7840 67° East 457 526 24,200 2,743 Climbing FlightAware ADS-B
Sat 05:36:05 AM 38.1400 -84.6910 68° East 470 541 25,600 2,400 Climbing FlightAware ADS-B
Sat 05:36:47 AM 38.1750 -84.5800 68° East 479 551 27,400 2,605 Climbing FlightAware ADS-B
Sat 05:37:21 AM 38.2040 -84.4910 67° East 483 556 28,900 2,909 Climbing FlightAware ADS-B
Sat 05:37:53 AM 38.2290 -84.4100 69° East 475 547 30,600 2,824 Climbing FlightAware ADS-B
Sat 05:38:29 AM 38.2590 -84.3150 68° East 474 545 32,100 2,000 Climbing FlightAware ADS-B
Sat 05:39:05 AM 38.2880 -84.2240 68° East 471 542 33,000 771 Climbing FlightAware ADS-B
Sat 05:39:39 AM 38.3160 -84.1340 68° East 475 547 33,000  Level FlightAware ADS-B
Sat 05:40:17 AM 38.3450 -84.0420 68° East 477 549 33,000  Level FlightAware ADS-B
Sat 05:40:51 AM 38.3750 -83.9460 68° East 476 548 33,000  Level FlightAware ADS-B
Sat 05:41:23 AM 38.3990 -83.8670 69° East 476 548 33,000  Level FlightAware ADS-B
Sat 05:41:57 AM 38.4280 -83.7750 68° East 477 549 33,000  Level FlightAware ADS-B
Sat 05:42:35 AM 38.4590 -83.6760 68° East 475 547 33,000  Level FlightAware ADS-B
Sat 05:43:09 AM 38.4860 -83.5890 68° East 473 544 33,000  Level FlightAware ADS-B
Sat 05:43:43 AM 38.5120 -83.5020 69° East 472 543 33,000  Level FlightAware ADS-B
Sat 05:44:19 AM 38.5410 -83.4090 68° East 470 541 33,000  Level FlightAware ADS-B
Sat 05:44:53 AM 38.5670 -83.3220 69° East 469 540 33,000  Level FlightAware ADS-B
Sat 05:45:37 AM 38.6010 -83.2120 68° East 466 536 33,000  Level FlightAware ADS-B
Sat 05:46:20 AM 38.6350 -83.0990 69° East 465 535 33,000  Level FlightAware ADS-B
Sat 05:46:56 AM 38.6630 -83.0040 69° East 465 535 33,000  Level FlightAware ADS-B
Sat 05:47:28 AM 38.6880 -82.9230 68° East 465 535 33,000  Level FlightAware ADS-B
Sat 05:48:05 AM 38.7150 -82.8320 69° East 465 535 33,000  Level FlightAware ADS-B
Sat 05:48:36 AM 38.7410 -82.7470 69° East 465 535 33,000  Level FlightAware ADS-B
Sat 05:49:11 AM 38.7670 -82.6610 69° East 466 536 33,000  Level FlightAware ADS-B
Sat 05:49:48 AM 38.7960 -82.5630 69° East 468 539 33,000  Level FlightAware ADS-B
Sat 05:50:24 AM 38.8240 -82.4680 69° East 468 539 33,000  Level FlightAware ADS-B
Sat 05:50:56 AM 38.8470 -82.3870 70° East 468 539 33,000  Level FlightAware ADS-B
Sat 05:51:34 AM 38.8760 -82.2890 69° East 468 539 33,000  Level FlightAware ADS-B
Sat 05:52:10 AM 38.9040 -82.1940 69° East 468 539 33,000  Level FlightAware ADS-B
Sat 05:52:44 AM 38.9300 -82.1060 69° East 468 539 33,000  Level FlightAware ADS-B
Sat 05:53:20 AM 38.9570 -82.0110 70° East 468 539 33,000  Level FlightAware ADS-B
Sat 05:53:52 AM 38.9810 -81.9280 70° East 468 539 33,000  Level FlightAware ADS-B
Sat 05:54:32 AM 39.0120 -81.8230 69° East 468 539 33,000  Level FlightAware ADS-B
Sat 05:55:04 AM 39.0350 -81.7440 69° East 469 540 33,000  Level FlightAware ADS-B
Sat 05:55:42 AM 39.0640 -81.6420 70° East 471 542 33,000  Level FlightAware ADS-B
Sat 05:56:14 AM 39.0870 -81.5600 70° East 472 543 33,000  Level FlightAware ADS-B
Sat 05:56:48 AM 39.1120 -81.4730 70° East 473 544 33,000  Level FlightAware ADS-B
Sat 05:57:24 AM 39.1370 -81.3870 69° East 474 545 33,000  Level FlightAware ADS-B
Sat 05:58:01 AM 39.1670 -81.2810 70° East 475 547 33,000  Level FlightAware ADS-B
Sat 05:58:34 AM 39.1930 -81.1860 71° East 476 548 33,000  Level FlightAware ADS-B
Sat 05:59:12 AM 39.2210 -81.0860 70° East 476 548 33,000  Level FlightAware ADS-B
Sat 05:59:44 AM 39.2450 -81.0000 70° East 476 548 33,000  Level FlightAware ADS-B
Sat 06:00:16 AM 39.2680 -80.9130 71° East 480 552 33,000  Level FlightAware ADS-B
Sat 06:00:55 AM 39.2810 -80.8070 81° East 485 558 33,000  Level FlightAware ADS-B
Sat 06:01:28 AM 39.2860 -80.7080 86° East 486 559 33,000  Level FlightAware ADS-B
Sat 06:01:58 AM 39.2900 -80.6310 86° East 487 560 33,000  Level FlightAware ADS-B
Sat 06:02:48 AM 39.2970 -80.4780 87° East 487 560 33,000  Level FlightAware ADS-B
Sat 06:03:28 AM 39.3020 -80.3600 87° East 487 560 33,000  Level FlightAware ADS-B
Sat 06:04:03 AM 39.3070 -80.2590 86° East 486 559 33,000  Level FlightAware ADS-B
Sat 06:04:38 AM 39.3110 -80.1590 87° East 487 560 33,000  Level FlightAware ADS-B
Sat 06:05:13 AM 39.3150 -80.0560 87° East 486 559 33,000  Level FlightAware ADS-B
Sat 06:05:49 AM 39.3190 -79.9550 87° East 486 559 33,000  Level FlightAware ADS-B
Sat 06:06:23 AM 39.3230 -79.8610 87° East 485 558 33,000  Level FlightAware ADS-B
Sat 06:06:53 AM 39.3270 -79.7660 87° East 485 558 33,000  Level FlightAware ADS-B
Sat 06:07:33 AM 39.3310 -79.6570 87° East 485 558 33,000  Level FlightAware ADS-B
Sat 06:08:09 AM 39.3350 -79.5500 87° East 484 557 33,000  Level FlightAware ADS-B
Sat 06:08:38 AM 39.3380 -79.4700 87° East 485 558 33,000 -348 Level FlightAware ADS-B
Sat 06:09:18 AM 39.3420 -79.3480 88° East 484 557 32,600 -1,286 Descending FlightAware ADS-B
Sat 06:09:48 AM 39.3450 -79.2640 87° East 488 562 31,500 -2,328 Descending FlightAware ADS-B
Sat 06:10:25 AM 39.3480 -79.1700 88° East 492 566 30,000 -2,535 Descending FlightAware ADS-B
Sat 06:10:59 AM 39.3520 -79.0560 87° East 495 570 28,500 -2,795 Descending FlightAware ADS-B
Sat 06:11:38 AM 39.3560 -78.9380 87° East 499 574 26,600 -2,720 Descending FlightAware ADS-B
Sat 06:12:14 AM 39.3590 -78.8290 88° East 493 567 25,100 -2,417 Descending FlightAware ADS-B
Sat 06:12:50 AM 39.3620 -78.7270 88° East 485 558 23,700 -2,545 Descending FlightAware ADS-B
Sat 06:13:20 AM 39.3650 -78.6390 87° East 476 548 22,300 -2,486 Descending FlightAware ADS-B
Sat 06:14:00 AM 39.3680 -78.5360 88° East 465 535 20,800 -2,522 Descending FlightAware ADS-B
Sat 06:14:29 AM 39.3710 -78.4480 87° East 456 525 19,400 -2,609 Descending FlightAware ADS-B
Sat 06:15:09 AM 39.3740 -78.3430 88° East 445 512 17,800 -2,447 Descending FlightAware ADS-B
Sat 06:15:45 AM 39.3760 -78.2490 88° East 435 501 16,300 -2,294 Descending FlightAware ADS-B
Sat 06:16:17 AM 39.3780 -78.1680 88° East 428 493 15,200 -1,075 Descending FlightAware ADS-B
Sat 06:16:52 AM 39.3820 -78.0770 87° East 427 491 15,100 -261 Descending FlightAware ADS-B
Sat 06:17:26 AM 39.3910 -77.9910 82° East 418 481 14,900 -943 Descending FlightAware ADS-B
Sat 06:18:02 AM 39.4000 -77.9010 83° East 398 458 14,000 -1,054 Descending FlightAware ADS-B
Sat 06:18:40 AM 39.4080 -77.8140 83° East 396 456 13,600 -771 Descending FlightAware ADS-B
Sat 06:19:12 AM 39.4140 -77.7400 84° East 392 451 13,100 -818 Descending FlightAware ADS-B
Sat 06:19:46 AM 39.4210 -77.6630 83° East 387 445 12,700 -750 Descending FlightAware ADS-B
Sat 06:20:24 AM 39.4290 -77.5750 83° East 385 443 12,200 -1,029 Descending FlightAware ADS-B
Sat 06:20:56 AM 39.4350 -77.5020 84° East 378 435 11,500 -943 Descending FlightAware ADS-B
Sat 06:21:34 AM 39.4420 -77.4180 84° East 374 430 11,100 -324 Descending FlightAware ADS-B
Sat 06:22:10 AM 39.4500 -77.3370 83° East 378 435 11,100  Level FlightAware ADS-B
Sat 06:22:44 AM 39.4600 -77.2610 80° East 378 435 11,100  Level FlightAware ADS-B
Sat 06:23:20 AM 39.4710 -77.1790 80° East 380 437 11,100  Level FlightAware ADS-B
Sat 06:23:54 AM 39.4800 -77.1030 81° East 379 436 11,100 -265 Level FlightAware ADS-B
Sat 06:24:28 AM 39.4800 -77.0300 90° East 354 407 10,800 -727 Descending FlightAware ADS-B
Sat 06:25:00 AM 39.4820 -76.9640 88° East 337 388 10,300 -667 Descending FlightAware ADS-B
Sat 06:25:40 AM 39.4830 -76.8880 89° East 305 351 10,000 -643 Descending FlightAware ADS-B
Sat 06:25:56 AM 39.4830 -76.8590 90° East 302 348 9,700 -1,333 Descending FlightAware ADS-B
Sat 06:26:16 AM 39.4840 -76.8230 88° East 303 349 9,200 -1,364 Descending FlightAware ADS-B
Sat 06:26:40 AM 39.4860 -76.7800 87° East 300 345 8,700 -1,269 Descending FlightAware ADS-B
Sat 06:27:08 AM 39.4870 -76.7330 88° East 296 341 8,100 -1,132 Descending FlightAware ADS-B
Sat 06:27:33 AM 39.4830 -76.7010 99° East 288 331 7,700 -973 Descending FlightAware ADS-B
Sat 06:27:45 AM 39.4720 -76.6840 130° Southeast 281 323 7,500 -1,579 Descending FlightAware ADS-B
Sat 06:27:52 AM 39.4600 -76.6740 147° Southeast 276 318 7,200 -1,286 Descending FlightAware ADS-B
Sat 06:28:13 AM 39.4450 -76.6660 158° South 276 318 6,900 -1,263 Descending FlightAware ADS-B
Sat 06:28:30 AM 39.4150 -76.6500 158° South 276 318 6,400 -1,429 Descending FlightAware ADS-B
Sat 06:28:55 AM 39.3890 -76.6350 156° South 275 316 5,900 -1,227 Descending FlightAware ADS-B
Sat 06:29:14 AM 39.3670 -76.6230 157° South 273 314 5,500 -1,024 Descending FlightAware ADS-B
Sat 06:29:36 AM 39.3500 -76.6130 156° South 270 311 5,200 -480 Descending FlightAware ADS-B
Sat 06:30:04 AM 39.3030 -76.5870 157° South 269 310 5,100 -105 Descending FlightAware ADS-B
Sat 06:30:33 AM 39.2740 -76.5710 157° South 270 311 5,100 -222 Level FlightAware ADS-B
Sat 06:30:58 AM 39.2410 -76.5520 156° South 268 308 4,900 -800 Descending FlightAware ADS-B
Sat 06:31:18 AM 39.2190 -76.5400 157° South 267 307 4,500 -1,467 Descending FlightAware ADS-B
Sat 06:31:43 AM 39.1910 -76.5230 155° Southeast 269 310 3,800 -1,467 Descending FlightAware ADS-B
Sat 06:32:03 AM 39.1720 -76.5130 158° South 269 310 3,400 -1,459 Descending FlightAware ADS-B
Sat 06:32:20 AM 39.1490 -76.5110 176° South 261 300 2,900 -667 Descending FlightAware ADS-B
Sat 06:32:48 AM 39.1210 -76.5180 191° South 261 300 2,900 -875 Level FlightAware ADS-B
Sat 06:33:56 AM 39.1000 -76.6000 191° South 201 231 1,500 -938 Descending Potomac TRACON
Sat 06:34:56 AM 39.1333 -76.6333 322° Northwest 143 165 900 -600 Descending Potomac TRACON
Sat 06:36:00 AM 39.1667 -76.6667 322° Northwest  Level FlightAware Approximate
Sat 06:43:00 AM 39.1754 -76.6683 322° Northwest  Level Estimated
Sat 06:44:00 AM 39.1754 -76.6683 322° Northwest  Level Estimated

Login

Don't have an account? Register now (free) for customized features, flight alerts, and more!